Time;durP1;ratioP1;P1;durP2;ratioP2;P2;SDS_P1;SDS_P2;PMS_P1;PMS_P2;Temp;Humidity;BMP_temperature;BMP_pressure;BME280_temperature;BME280_humidity;BME280_pressure;Samples;Min_cycle;Max_cycle;Signal;HPM_P1;HPM_P2
2021/08/27 00:02:06;;;;;;;8.33;4.20;;;;;;;;;;4955625;29;20696;-74
2021/08/27 00:05:10;;;;;;;7.60;4.13;;;;;;;;;;4968437;28;20215;-74
2021/08/27 00:08:15;;;;;;;10.57;4.80;;;;;;;;;;4973694;28;20220;-73
2021/08/27 00:11:19;;;;;;;5.23;3.90;;;;;;;;;;4974924;28;20214;-74
2021/08/27 00:14:23;;;;;;;6.97;3.90;;;;;;;;;;4974732;28;20198;-74
2021/08/27 00:17:30;;;;;;;6.90;4.50;;;;;;;;;;4974822;28;20190;-74
2021/08/27 00:20:36;;;;;;;7.60;4.77;;;;;;;;;;4965961;28;20194;-74
2021/08/27 00:23:40;;;;;;;7.90;4.40;;;;;;;;;;4974591;28;20195;-74
2021/08/27 00:26:45;;;;;;;4.93;3.87;;;;;;;;;;4962528;28;20222;-75
2021/08/27 00:29:49;;;;;;;5.70;3.57;;;;;;;;;;4974818;28;20182;-74
2021/08/27 00:32:55;;;;;;;7.23;3.97;;;;;;;;;;4974583;28;20206;-74
2021/08/27 00:35:59;;;;;;;6.80;4.13;;;;;;;;;;4955260;29;20199;-74
2021/08/27 00:39:04;;;;;;;9.27;4.53;;;;;;;;;;4955155;29;20195;-75
2021/08/27 00:42:08;;;;;;;7.43;4.00;;;;;;;;;;4955353;28;20558;-74
2021/08/27 00:45:12;;;;;;;9.57;4.20;;;;;;;;;;4962242;28;20214;-74
2021/08/27 00:48:16;;;;;;;5.20;3.90;;;;;;;;;;4974222;28;20206;-74
2021/08/27 00:51:20;;;;;;;6.77;4.73;;;;;;;;;;4974533;28;20218;-75
2021/08/27 00:54:25;;;;;;;6.90;4.20;;;;;;;;;;4974504;28;20206;-75
2021/08/27 00:57:29;;;;;;;6.00;4.07;;;;;;;;;;4975412;28;20202;-74
2021/08/27 01:00:34;;;;;;;7.00;4.30;;;;;;;;;;4978499;28;20183;-74
2021/08/27 01:03:39;;;;;;;7.70;4.20;;;;;;;;;;4968580;28;20520;-73
2021/08/27 01:07:04;;;;;;;8.40;4.07;;;;;;;;;;4980672;28;20543;-73
2021/08/27 01:10:18;;;;;;;7.83;4.33;;;;;;;;;;4980339;28;20191;-73
2021/08/27 01:13:29;;;;;;;4.90;3.77;;;;;;;;;;4971632;28;20187;-73
2021/08/27 01:16:40;;;;;;;5.67;3.70;;;;;;;;;;4975975;28;20190;-74
2021/08/27 01:20:09;;;;;;;6.37;3.17;;;;;;;;;;4977140;28;20201;-73
2021/08/27 01:23:17;;;;;;;6.13;3.07;;;;;;;;;;4984879;28;20182;-73
2021/08/27 01:26:26;;;;;;;5.10;3.00;;;;;;;;;;4975771;28;20211;-72
2021/08/27 01:29:39;;;;;;;4.73;2.70;;;;;;;;;;4984564;28;20198;-72
2021/08/27 01:33:05;;;;;;;6.63;2.60;;;;;;;;;;4986931;28;20222;-72
2021/08/27 01:36:10;;;;;;;5.50;2.00;;;;;;;;;;4987060;28;20178;-73
2021/08/27 01:39:16;;;;;;;3.37;2.10;;;;;;;;;;4981768;28;20555;-74
2021/08/27 01:42:24;;;;;;;7.37;2.70;;;;;;;;;;4974320;28;20222;-73
2021/08/27 01:45:29;;;;;;;5.53;2.33;;;;;;;;;;4976366;28;20214;-73
2021/08/27 01:48:37;;;;;;;3.00;1.83;;;;;;;;;;4976698;28;20190;-74
2021/08/27 01:51:42;;;;;;;2.57;2.07;;;;;;;;;;4977303;28;20223;-73
2021/08/27 01:54:47;;;;;;;4.03;2.37;;;;;;;;;;4977442;28;20186;-74
2021/08/27 01:57:54;;;;;;;4.70;2.20;;;;;;;;;;4969288;28;20649;-73
2021/08/27 02:00:59;;;;;;;3.83;2.10;;;;;;;;;;4977116;28;20218;-74
2021/08/27 02:04:11;;;;;;;2.87;2.00;;;;;;;;;;4976227;28;20195;-74
2021/08/27 02:07:16;;;;;;;4.13;2.40;;;;;;;;;;4976460;28;20580;-73
2021/08/27 02:10:21;;;;;;;4.23;2.20;;;;;;;;;;4975530;28;20195;-73
2021/08/27 02:13:27;;;;;;;5.70;2.30;;;;;;;;;;4977268;28;20186;-74
2021/08/27 02:16:31;;;;;;;3.43;2.30;;;;;;;;;;4977073;28;20179;-74
2021/08/27 02:19:36;;;;;;;5.13;2.20;;;;;;;;;;4976458;28;20535;-73
2021/08/27 02:22:40;;;;;;;3.33;2.60;;;;;;;;;;4957394;29;20223;-73
2021/08/27 02:25:47;;;;;;;4.80;3.00;;;;;;;;;;4966403;28;20219;-74
2021/08/27 02:28:51;;;;;;;3.93;2.80;;;;;;;;;;4956641;29;20227;-74
2021/08/27 02:32:01;;;;;;;4.27;2.87;;;;;;;;;;4964326;28;20702;-73
2021/08/27 02:35:06;;;;;;;4.60;2.37;;;;;;;;;;4976340;28;20631;-74
2021/08/27 02:38:22;;;;;;;5.37;3.27;;;;;;;;;;4976419;28;20535;-73
2021/08/27 02:41:26;;;;;;;4.40;3.00;;;;;;;;;;4976403;28;20226;-74
2021/08/27 02:44:30;;;;;;;4.10;3.70;;;;;;;;;;4976385;28;20206;-74
2021/08/27 02:47:34;;;;;;;5.20;3.97;;;;;;;;;;4965520;28;20191;-73
2021/08/27 02:50:47;;;;;;;6.43;4.00;;;;;;;;;;4976482;28;20495;-73
2021/08/27 02:53:54;;;;;;;4.57;3.93;;;;;;;;;;4956696;29;20187;-74
2021/08/27 02:57:03;;;;;;;7.37;4.07;;;;;;;;;;4967508;28;20187;-73
2021/08/27 03:00:07;;;;;;;8.80;4.27;;;;;;;;;;4975970;28;20194;-73
2021/08/27 03:03:12;;;;;;;7.57;4.23;;;;;;;;;;4976044;28;20658;-73
2021/08/27 03:06:27;;;;;;;5.97;4.20;;;;;;;;;;4974759;28;20210;-73
2021/08/27 03:09:48;;;;;;;5.53;4.03;;;;;;;;;;4975816;28;20205;-73
2021/08/27 03:12:58;;;;;;;5.53;3.87;;;;;;;;;;4975818;28;20222;-74
2021/08/27 03:16:05;;;;;;;4.70;3.50;;;;;;;;;;4976052;28;20175;-74
2021/08/27 03:19:45;;;;;;;4.73;3.30;;;;;;;;;;4975755;28;20191;-73
2021/08/27 03:22:56;;;;;;;3.50;3.00;;;;;;;;;;4985065;28;20231;-74
2021/08/27 03:26:07;;;;;;;3.93;3.03;;;;;;;;;;4955308;29;20227;-74
2021/08/27 03:29:15;;;;;;;5.83;3.30;;;;;;;;;;4956308;29;20175;-74
2021/08/27 03:32:21;;;;;;;4.37;2.93;;;;;;;;;;4955919;28;20571;-74
2021/08/27 03:35:26;;;;;;;6.80;3.43;;;;;;;;;;4967786;28;20211;-73
2021/08/27 03:38:31;;;;;;;4.03;3.13;;;;;;;;;;4956355;29;20187;-74
2021/08/27 03:41:40;;;;;;;7.73;3.13;;;;;;;;;;4993107;23;20230;-84
2021/08/27 03:44:46;;;;;;;5.87;3.07;;;;;;;;;;4967593;28;20183;-87
2021/08/27 03:47:51;;;;;;;4.60;3.17;;;;;;;;;;4962773;28;20190;-86
2021/08/27 03:50:56;;;;;;;4.00;3.50;;;;;;;;;;4983399;28;20217;-86
2021/08/27 03:54:01;;;;;;;5.67;3.70;;;;;;;;;;4961035;28;20523;-86
2021/08/27 03:57:06;;;;;;;7.37;3.73;;;;;;;;;;4970374;28;20175;-86
2021/08/27 04:00:12;;;;;;;4.70;3.37;;;;;;;;;;4970674;28;20190;-86
2021/08/27 04:03:20;;;;;;;4.93;3.27;;;;;;;;;;4960835;28;20199;-86
2021/08/27 04:06:24;;;;;;;4.30;3.57;;;;;;;;;;4961005;28;20210;-86
2021/08/27 04:09:30;;;;;;;5.13;3.80;;;;;;;;;;4960735;28;20191;-86
2021/08/27 04:12:36;;;;;;;4.47;3.47;;;;;;;;;;4982780;28;20218;-86
2021/08/27 04:15:40;;;;;;;5.10;3.83;;;;;;;;;;4951785;29;20670;-86
2021/08/27 04:18:44;;;;;;;8.00;3.73;;;;;;;;;;4940278;29;20183;-85
2021/08/27 04:21:48;;;;;;;5.20;3.70;;;;;;;;;;4968042;28;20226;-86
2021/08/27 04:24:53;;;;;;;6.37;3.67;;;;;;;;;;4960865;28;20186;-86
2021/08/27 04:27:56;;;;;;;5.43;3.67;;;;;;;;;;4971115;28;20206;-86
2021/08/27 04:31:00;;;;;;;7.73;4.53;;;;;;;;;;4959579;28;20226;-85
2021/08/27 04:34:05;;;;;;;4.77;3.60;;;;;;;;;;4968807;28;20199;-85
2021/08/27 04:37:09;;;;;;;4.33;3.40;;;;;;;;;;4982021;28;20190;-85
2021/08/27 04:40:13;;;;;;;4.57;3.83;;;;;;;;;;4959045;28;20190;-85
2021/08/27 04:43:18;;;;;;;6.60;3.67;;;;;;;;;;4969882;28;20645;-85
2021/08/27 04:46:22;;;;;;;6.07;4.10;;;;;;;;;;4957435;28;20206;-85
2021/08/27 04:49:26;;;;;;;6.03;3.77;;;;;;;;;;4949969;28;20217;-84
2021/08/27 04:52:31;;;;;;;7.90;4.03;;;;;;;;;;4942325;28;20226;-86
2021/08/27 04:55:35;;;;;;;6.37;4.23;;;;;;;;;;4969813;28;20186;-85
2021/08/27 04:58:39;;;;;;;4.67;3.60;;;;;;;;;;4959146;28;20649;-84
2021/08/27 05:01:43;;;;;;;5.50;3.80;;;;;;;;;;4958793;28;20222;-85
2021/08/27 05:04:50;;;;;;;5.07;4.10;;;;;;;;;;4956872;28;20199;-85
2021/08/27 05:07:54;;;;;;;5.70;3.90;;;;;;;;;;4967761;28;20219;-84
2021/08/27 05:11:00;;;;;;;6.17;3.87;;;;;;;;;;4979005;28;20222;-85
2021/08/27 05:14:04;;;;;;;4.57;3.30;;;;;;;;;;4966761;28;20190;-84
2021/08/27 05:17:08;;;;;;;9.63;8.43;;;;;;;;;;4961178;28;20183;-83
2021/08/27 05:20:12;;;;;;;5.67;4.20;;;;;;;;;;4971186;28;20210;-85
2021/08/27 05:23:16;;;;;;;6.53;3.93;;;;;;;;;;4956917;28;20187;-82
2021/08/27 05:26:21;;;;;;;4.37;3.63;;;;;;;;;;4963695;28;20218;-81
2021/08/27 05:29:26;;;;;;;5.13;3.67;;;;;;;;;;4951954;28;20508;-82
2021/08/27 05:32:30;;;;;;;8.03;4.17;;;;;;;;;;4952836;28;20219;-81
2021/08/27 05:35:39;;;;;;;7.57;3.33;;;;;;;;;;4953327;28;20191;-81
2021/08/27 05:38:45;;;;;;;5.87;3.87;;;;;;;;;;4963825;28;20194;-81
2021/08/27 05:41:49;;;;;;;7.20;4.50;;;;;;;;;;4969664;28;20574;-84
2021/08/27 05:44:53;;;;;;;5.50;4.53;;;;;;;;;;4959045;28;20195;-85
2021/08/27 05:47:58;;;;;;;5.67;4.60;;;;;;;;;;4958923;28;20558;-85
2021/08/27 05:51:03;;;;;;;6.57;4.47;;;;;;;;;;4973276;28;20226;-85
2021/08/27 05:54:09;;;;;;;6.90;5.40;;;;;;;;;;4962678;28;20506;-86
2021/08/27 05:57:13;;;;;;;7.20;5.57;;;;;;;;;;4962380;28;20618;-86
2021/08/27 06:00:18;;;;;;;7.60;6.13;;;;;;;;;;4962885;28;20511;-85
2021/08/27 06:03:22;;;;;;;9.03;7.70;;;;;;;;;;4965153;28;20523;-86
2021/08/27 06:06:27;;;;;;;9.07;6.17;;;;;;;;;;4966648;28;20210;-85
2021/08/27 06:09:31;;;;;;;6.90;5.43;;;;;;;;;;4958644;28;20195;-85
2021/08/27 06:12:36;;;;;;;6.93;5.97;;;;;;;;;;4966933;28;20222;-88
2021/08/27 06:15:43;;;;;;;10.43;6.30;;;;;;;;;;4956081;28;20662;-87
2021/08/27 06:18:47;;;;;;;13.50;7.23;;;;;;;;;;4955541;28;20646;-87
2021/08/27 06:21:52;;;;;;;9.57;5.80;;;;;;;;;;4954503;28;20230;-88
2021/08/27 06:24:56;;;;;;;8.77;6.43;;;;;;;;;;4959366;28;20519;-84
2021/08/27 06:28:00;;;;;;;10.43;6.23;;;;;;;;;;4958164;28;20211;-84
2021/08/27 06:31:04;;;;;;;9.60;6.53;;;;;;;;;;4979553;28;20566;-84
2021/08/27 06:34:08;;;;;;;10.20;6.10;;;;;;;;;;4968262;28;20191;-85
2021/08/27 06:37:13;;;;;;;6.77;5.47;;;;;;;;;;4968187;28;20183;-84
2021/08/27 06:40:17;;;;;;;11.43;6.33;;;;;;;;;;4967683;28;20214;-84
2021/08/27 06:43:22;;;;;;;8.83;6.00;;;;;;;;;;4952021;29;20195;-84
2021/08/27 06:46:27;;;;;;;7.87;5.80;;;;;;;;;;4968847;28;20195;-84
2021/08/27 06:49:31;;;;;;;9.03;5.53;;;;;;;;;;4968496;28;20183;-84
2021/08/27 06:52:35;;;;;;;8.07;5.30;;;;;;;;;;4968687;28;20551;-84
2021/08/27 06:55:39;;;;;;;7.00;5.50;;;;;;;;;;4979153;28;20183;-84
2021/08/27 06:58:44;;;;;;;9.70;5.10;;;;;;;;;;4959725;29;20187;-85
2021/08/27 07:01:47;;;;;;;9.07;5.30;;;;;;;;;;4949154;29;20219;-84
2021/08/27 07:04:51;;;;;;;6.87;4.70;;;;;;;;;;4949193;29;20183;-85
2021/08/27 07:07:56;;;;;;;6.17;4.93;;;;;;;;;;4948821;29;20207;-84
2021/08/27 07:11:00;;;;;;;5.40;4.67;;;;;;;;;;4960755;29;20702;-84
2021/08/27 07:14:04;;;;;;;6.50;4.47;;;;;;;;;;4960038;29;20183;-85
2021/08/27 07:17:09;;;;;;;6.73;4.60;;;;;;;;;;4959573;29;20184;-84
2021/08/27 07:20:15;;;;;;;5.97;4.67;;;;;;;;;;4948419;29;20188;-84
2021/08/27 07:23:19;;;;;;;5.97;4.20;;;;;;;;;;4949293;29;20627;-85
2021/08/27 07:26:23;;;;;;;7.43;4.30;;;;;;;;;;4959883;29;20187;-84
2021/08/27 07:29:28;;;;;;;5.80;4.03;;;;;;;;;;4948778;29;20199;-84
2021/08/27 07:32:32;;;;;;;6.57;4.17;;;;;;;;;;4937472;29;20227;-84
2021/08/27 07:35:36;;;;;;;4.53;3.60;;;;;;;;;;4950506;28;20202;-84
2021/08/27 07:38:40;;;;;;;5.07;3.37;;;;;;;;;;4968144;28;20178;-84
2021/08/27 07:41:44;;;;;;;6.07;3.93;;;;;;;;;;4967307;28;20222;-83
2021/08/27 07:44:49;;;;;;;6.73;4.43;;;;;;;;;;4967127;28;20630;-83
2021/08/27 07:47:53;;;;;;;5.03;3.87;;;;;;;;;;4967815;28;20211;-84
2021/08/27 07:50:57;;;;;;;7.40;3.10;;;;;;;;;;4967292;28;20226;-83
2021/08/27 07:54:01;;;;;;;7.23;4.90;;;;;;;;;;4966765;28;20527;-83
2021/08/27 07:57:05;;;;;;;6.17;3.60;;;;;;;;;;4955540;28;20183;-83
2021/08/27 08:00:11;;;;;;;3.50;3.00;;;;;;;;;;4967052;28;20183;-85
2021/08/27 08:03:15;;;;;;;5.60;3.27;;;;;;;;;;4966864;28;20191;-84
2021/08/27 08:06:19;;;;;;;3.23;2.93;;;;;;;;;;4966635;28;20179;-83
2021/08/27 08:09:23;;;;;;;8.13;3.33;;;;;;;;;;4955839;28;20190;-85
2021/08/27 08:12:27;;;;;;;4.90;2.87;;;;;;;;;;4977593;28;20689;-84
2021/08/27 08:15:31;;;;;;;5.20;3.07;;;;;;;;;;4967117;28;20179;-84
2021/08/27 08:18:35;;;;;;;3.00;2.70;;;;;;;;;;4966436;28;20634;-84
2021/08/27 08:21:40;;;;;;;5.87;2.77;;;;;;;;;;4977514;28;20218;-84
2021/08/27 08:24:45;;;;;;;4.10;2.60;;;;;;;;;;4966686;28;20179;-84
2021/08/27 08:27:49;;;;;;;4.87;2.33;;;;;;;;;;4955281;28;20219;-83
2021/08/27 08:30:54;;;;;;;5.43;2.10;;;;;;;;;;4977561;28;20218;-84
2021/08/27 08:33:58;;;;;;;2.63;2.10;;;;;;;;;;4967691;28;20182;-84
2021/08/27 08:37:02;;;;;;;5.60;1.90;;;;;;;;;;4959232;28;20187;-84
2021/08/27 08:40:09;;;;;;;3.40;1.90;;;;;;;;;;4947721;29;20525;-84
2021/08/27 08:43:15;;;;;;;4.47;1.90;;;;;;;;;;4958418;29;20180;-84
2021/08/27 08:46:21;;;;;;;4.00;2.23;;;;;;;;;;4936530;29;20199;-84
2021/08/27 08:49:28;;;;;;;4.03;1.90;;;;;;;;;;4936862;29;20176;-84
2021/08/27 08:52:35;;;;;;;2.50;1.70;;;;;;;;;;4947769;29;20222;-84
2021/08/27 08:55:41;;;;;;;3.70;1.90;;;;;;;;;;4947099;29;20184;-84
2021/08/27 08:58:45;;;;;;;4.27;2.33;;;;;;;;;;4959487;29;20183;-84
2021/08/27 09:01:49;;;;;;;2.80;1.37;;;;;;;;;;4947992;29;20227;-84
2021/08/27 09:04:53;;;;;;;4.77;1.80;;;;;;;;;;4937283;29;20183;-84
2021/08/27 09:07:58;;;;;;;3.23;1.97;;;;;;;;;;4936044;29;20212;-85
2021/08/27 09:11:16;;;;;;;2.73;1.87;;;;;;;;;;4936880;28;20706;-84
2021/08/27 09:14:27;;;;;;;5.80;1.80;;;;;;;;;;4947875;29;20204;-84
2021/08/27 09:17:38;;;;;;;2.37;1.60;;;;;;;;;;4969420;28;20175;-84
2021/08/27 09:20:43;;;;;;;5.07;1.70;;;;;;;;;;4941115;28;20693;-84
2021/08/27 09:23:47;;;;;;;2.97;1.93;;;;;;;;;;4961602;28;20198;-85
2021/08/27 09:26:56;;;;;;;2.83;1.50;;;;;;;;;;4970625;28;20190;-84
2021/08/27 09:30:01;;;;;;;4.17;1.53;;;;;;;;;;4971334;28;20503;-84
2021/08/27 09:33:10;;;;;;;2.43;1.57;;;;;;;;;;4970298;28;20183;-85
2021/08/27 09:36:14;;;;;;;2.97;1.67;;;;;;;;;;4958622;28;20199;-85
2021/08/27 09:39:18;;;;;;;3.67;1.70;;;;;;;;;;4969333;28;20178;-85
2021/08/27 09:42:35;;;;;;;2.30;1.33;;;;;;;;;;5014587;23;20237;-85
2021/08/27 09:45:43;;;;;;;2.57;1.33;;;;;;;;;;4993891;28;20644;-86
2021/08/27 09:48:46;;;;;;;4.17;1.50;;;;;;;;;;4993745;28;20206;-86
2021/08/27 09:51:51;;;;;;;2.13;1.30;;;;;;;;;;4997314;28;20214;-86
2021/08/27 09:55:06;;;;;;;2.07;1.10;;;;;;;;;;4974330;28;20187;-85
2021/08/27 09:58:11;;;;;;;3.47;1.40;;;;;;;;;;4974604;28;20182;-86
2021/08/27 10:01:15;;;;;;;2.97;1.20;;;;;;;;;;4970644;28;20226;-86
2021/08/27 10:04:19;;;;;;;2.23;1.40;;;;;;;;;;4954864;28;20187;-86
2021/08/27 10:07:27;;;;;;;2.17;0.80;;;;;;;;;;4977079;28;20189;-86
2021/08/27 10:10:32;;;;;;;1.43;1.00;;;;;;;;;;4973778;28;20190;-86
2021/08/27 10:13:36;;;;;;;1.33;0.97;;;;;;;;;;4972100;28;20186;-86
2021/08/27 10:16:42;;;;;;;2.23;1.67;;;;;;;;;;4969002;28;20515;-86
2021/08/27 10:19:46;;;;;;;1.63;1.10;;;;;;;;;;4980852;28;20190;-86
2021/08/27 10:22:50;;;;;;;3.87;1.80;;;;;;;;;;4993620;28;20684;-86
2021/08/27 10:25:54;;;;;;;2.97;1.10;;;;;;;;;;4971190;28;20179;-86
2021/08/27 10:29:05;;;;;;;2.23;1.27;;;;;;;;;;4982109;28;20206;-86
2021/08/27 10:32:10;;;;;;;0.83;0.80;;;;;;;;;;4967378;28;20227;-86
2021/08/27 10:35:23;;;;;;;2.93;1.00;;;;;;;;;;4973221;28;20198;-86
2021/08/27 10:38:47;;;;;;;1.60;0.90;;;;;;;;;;4984150;28;20186;-86
2021/08/27 10:41:51;;;;;;;1.30;1.03;;;;;;;;;;4973445;28;20570;-86
2021/08/27 10:44:56;;;;;;;2.80;1.03;;;;;;;;;;4963848;28;20207;-86
2021/08/27 10:48:25;;;;;;;3.60;1.20;;;;;;;;;;4965000;28;20206;-86
2021/08/27 10:51:35;;;;;;;3.90;0.93;;;;;;;;;;4955498;28;20574;-86
2021/08/27 10:55:01;;;;;;;2.43;1.10;;;;;;;;;;4983674;28;20202;-86
2021/08/27 10:58:13;;;;;;;2.13;1.20;;;;;;;;;;4972932;28;20191;-86
2021/08/27 11:01:32;;;;;;;1.63;1.00;;;;;;;;;;4969025;28;20246;-86
2021/08/27 11:04:43;;;;;;;2.67;1.30;;;;;;;;;;4966882;28;20639;-87
2021/08/27 11:07:48;;;;;;;1.80;1.20;;;;;;;;;;4977492;28;20183;-87
2021/08/27 11:11:07;;;;;;;2.30;1.20;;;;;;;;;;4964934;28;20179;-86
2021/08/27 11:14:14;;;;;;;3.33;1.07;;;;;;;;;;4964737;28;20179;-86
2021/08/27 11:17:19;;;;;;;1.93;0.80;;;;;;;;;;4964679;28;20190;-86
2021/08/27 11:20:28;;;;;;;1.93;1.17;;;;;;;;;;4975648;28;20183;-86
2021/08/27 11:23:51;;;;;;;2.00;0.90;;;;;;;;;;4964516;28;20179;-86
2021/08/27 11:27:03;;;;;;;1.73;0.80;;;;;;;;;;4968430;28;20198;-86
2021/08/27 11:30:32;;;;;;;1.70;0.90;;;;;;;;;;4988132;28;20202;-86
2021/08/27 11:33:45;;;;;;;3.23;1.30;;;;;;;;;;4964352;28;20526;-86
2021/08/27 11:36:50;;;;;;;1.70;1.13;;;;;;;;;;4964660;28;20190;-86
2021/08/27 11:39:54;;;;;;;2.30;1.40;;;;;;;;;;4975304;28;20182;-86
2021/08/27 11:42:59;;;;;;;1.57;1.30;;;;;;;;;;4996031;28;20268;-86
2021/08/27 11:46:05;;;;;;;3.20;1.47;;;;;;;;;;4974728;28;20214;-86
2021/08/27 11:49:19;;;;;;;1.93;1.03;;;;;;;;;;4963584;28;20222;-86
2021/08/27 11:52:29;;;;;;;3.07;1.10;;;;;;;;;;4969818;28;20226;-87
2021/08/27 11:55:45;;;;;;;3.93;1.07;;;;;;;;;;4975111;28;20179;-87
2021/08/27 11:58:49;;;;;;;2.27;1.20;;;;;;;;;;4963548;28;20190;-86
2021/08/27 12:01:55;;;;;;;2.37;1.00;;;;;;;;;;4974146;28;20218;-86
2021/08/27 12:05:02;;;;;;;1.73;0.77;;;;;;;;;;4963431;28;20202;-86
2021/08/27 12:08:08;;;;;;;1.87;0.80;;;;;;;;;;4974646;28;20202;-86
2021/08/27 12:11:12;;;;;;;1.93;0.93;;;;;;;;;;4974432;28;20182;-86
2021/08/27 12:14:16;;;;;;;3.07;0.83;;;;;;;;;;4960905;28;20210;-86
2021/08/27 12:17:25;;;;;;;1.97;1.20;;;;;;;;;;4982942;28;20511;-86
2021/08/27 12:20:32;;;;;;;3.40;0.97;;;;;;;;;;4968109;28;20187;-86
2021/08/27 12:23:38;;;;;;;1.77;1.20;;;;;;;;;;4963242;28;20178;-86
2021/08/27 12:26:42;;;;;;;2.30;0.90;;;;;;;;;;4967706;28;20206;-86
2021/08/27 12:30:05;;;;;;;4.87;1.10;;;;;;;;;;4971156;28;20206;-86
2021/08/27 12:33:10;;;;;;;1.97;1.13;;;;;;;;;;4965068;28;20219;-86
2021/08/27 12:36:15;;;;;;;3.30;1.17;;;;;;;;;;4968707;28;20182;-86
2021/08/27 12:39:19;;;;;;;10.00;1.47;;;;;;;;;;4971850;28;20621;-86
2021/08/27 12:42:24;;;;;;;2.93;1.10;;;;;;;;;;4981878;28;20692;-86
2021/08/27 12:45:46;;;;;;;2.00;1.00;;;;;;;;;;4971670;28;20571;-87
2021/08/27 12:49:10;;;;;;;2.23;1.00;;;;;;;;;;4972433;28;20214;-87
2021/08/27 12:52:15;;;;;;;2.20;0.93;;;;;;;;;;4971116;28;20221;-86
2021/08/27 12:55:21;;;;;;;0.90;0.73;;;;;;;;;;4975480;28;20637;-86
2021/08/27 12:58:32;;;;;;;3.20;1.10;;;;;;;;;;4967153;28;20523;-86
2021/08/27 13:01:36;;;;;;;2.17;1.23;;;;;;;;;;4966896;28;20226;-86
2021/08/27 13:04:42;;;;;;;1.87;1.00;;;;;;;;;;4977927;28;20183;-86
2021/08/27 13:07:47;;;;;;;4.33;1.70;;;;;;;;;;4967747;28;20190;-87
2021/08/27 13:11:08;;;;;;;5.23;2.53;;;;;;;;;;4966968;28;20182;-87
2021/08/27 13:14:30;;;;;;;4.13;1.27;;;;;;;;;;4967073;28;20188;-87
2021/08/27 13:17:34;;;;;;;3.50;1.03;;;;;;;;;;4966706;28;20183;-87
2021/08/27 13:20:38;;;;;;;3.53;1.30;;;;;;;;;;4968345;28;20519;-86
2021/08/27 13:23:43;;;;;;;2.80;1.00;;;;;;;;;;4985946;28;20630;-86
2021/08/27 13:26:53;;;;;;;2.43;1.17;;;;;;;;;;4974487;28;20202;-86
2021/08/27 13:29:58;;;;;;;2.50;1.27;;;;;;;;;;4974639;28;20546;-86
2021/08/27 13:33:04;;;;;;;1.40;1.03;;;;;;;;;;4974727;28;20214;-86
2021/08/27 13:36:08;;;;;;;2.90;1.60;;;;;;;;;;4974714;28;20186;-86
2021/08/27 13:39:12;;;;;;;1.87;1.00;;;;;;;;;;4974697;28;20178;-86
2021/08/27 13:42:17;;;;;;;2.30;1.23;;;;;;;;;;4973955;28;20221;-87
2021/08/27 13:45:21;;;;;;;4.07;1.30;;;;;;;;;;4974580;28;20186;-86
2021/08/27 13:48:25;;;;;;;3.60;1.40;;;;;;;;;;4996693;28;20634;-86
2021/08/27 13:51:29;;;;;;;4.17;1.40;;;;;;;;;;4974413;28;20221;-86
2021/08/27 13:54:32;;;;;;;2.13;1.00;;;;;;;;;;4985409;28;20178;-86
2021/08/27 13:57:37;;;;;;;2.77;1.00;;;;;;;;;;4985697;28;20186;-86
2021/08/27 14:00:41;;;;;;;1.93;1.00;;;;;;;;;;4985444;28;20178;-86
2021/08/27 14:03:45;;;;;;;2.30;1.00;;;;;;;;;;4984925;28;20190;-87
2021/08/27 14:06:49;;;;;;;2.00;1.13;;;;;;;;;;4985124;28;20526;-86
2021/08/27 14:09:53;;;;;;;2.37;1.23;;;;;;;;;;4984897;28;20206;-86
2021/08/27 14:12:58;;;;;;;3.73;1.10;;;;;;;;;;4984852;28;20218;-86
2021/08/27 14:16:02;;;;;;;3.90;1.10;;;;;;;;;;4985261;28;20514;-86
2021/08/27 14:19:06;;;;;;;2.37;1.43;;;;;;;;;;4974230;28;20526;-87
2021/08/27 14:22:11;;;;;;;1.83;1.10;;;;;;;;;;4973837;28;20217;-87
2021/08/27 14:25:16;;;;;;;3.97;2.57;;;;;;;;;;4973685;28;20186;-87
2021/08/27 14:28:20;;;;;;;3.67;1.00;;;;;;;;;;4984802;28;20186;-87
2021/08/27 14:31:27;;;;;;;1.23;1.00;;;;;;;;;;4995874;28;20206;-87
2021/08/27 14:34:31;;;;;;;2.47;1.00;;;;;;;;;;4973590;28;20518;-87
2021/08/27 14:37:37;;;;;;;2.27;1.20;;;;;;;;;;4984317;28;20206;-87
2021/08/27 14:40:41;;;;;;;2.33;0.90;;;;;;;;;;4984661;28;20182;-87
2021/08/27 14:43:45;;;;;;;1.60;1.00;;;;;;;;;;4964736;28;20531;-87
2021/08/27 14:46:49;;;;;;;5.27;1.10;;;;;;;;;;4962226;28;20538;-87
2021/08/27 14:49:53;;;;;;;2.00;0.83;;;;;;;;;;4972249;28;20216;-86
2021/08/27 14:52:57;;;;;;;2.60;1.53;;;;;;;;;;4964080;28;20230;-87
2021/08/27 14:56:01;;;;;;;2.93;1.00;;;;;;;;;;4968247;28;20201;-87
2021/08/27 14:59:05;;;;;;;3.33;1.20;;;;;;;;;;4969418;28;20206;-87
2021/08/27 15:02:10;;;;;;;2.80;0.90;;;;;;;;;;4969049;28;20218;-86
2021/08/27 15:05:13;;;;;;;2.53;0.80;;;;;;;;;;4973494;28;20178;-88
2021/08/27 15:08:17;;;;;;;1.67;0.83;;;;;;;;;;4984124;28;20187;-86
2021/08/27 15:11:21;;;;;;;1.73;0.57;;;;;;;;;;4973262;28;20210;-86
2021/08/27 15:14:26;;;;;;;4.40;0.60;;;;;;;;;;4992405;28;20650;-86
2021/08/27 15:17:31;;;;;;;1.57;0.60;;;;;;;;;;4961700;28;20195;-86
2021/08/27 15:20:35;;;;;;;0.70;0.60;;;;;;;;;;4961809;28;20202;-86
2021/08/27 15:23:39;;;;;;;1.40;0.67;;;;;;;;;;4962133;28;20206;-87
2021/08/27 15:26:43;;;;;;;1.87;0.70;;;;;;;;;;4992077;28;20186;-86
2021/08/27 15:29:47;;;;;;;2.27;0.70;;;;;;;;;;4992174;28;20218;-86
2021/08/27 15:32:51;;;;;;;1.90;0.77;;;;;;;;;;4961113;28;20226;-86
2021/08/27 15:35:55;;;;;;;2.50;0.80;;;;;;;;;;4980016;28;20562;-88
2021/08/27 15:39:00;;;;;;;2.60;1.50;;;;;;;;;;4991064;28;20186;-87
2021/08/27 15:42:04;;;;;;;2.10;0.90;;;;;;;;;;4979126;28;20230;-87
2021/08/27 15:45:09;;;;;;;1.57;0.90;;;;;;;;;;4979836;28;20194;-87
2021/08/27 15:48:14;;;;;;;1.90;0.90;;;;;;;;;;4978957;28;20198;-87
2021/08/27 15:51:18;;;;;;;4.77;1.10;;;;;;;;;;4960035;28;20733;-87
2021/08/27 15:54:22;;;;;;;1.83;1.20;;;;;;;;;;4983304;28;20202;-87
2021/08/27 15:57:27;;;;;;;2.33;1.00;;;;;;;;;;4977229;28;20190;-87
2021/08/27 16:00:31;;;;;;;2.43;1.00;;;;;;;;;;4968618;28;20178;-87
2021/08/27 16:03:35;;;;;;;3.73;1.07;;;;;;;;;;4960141;28;20190;-87
2021/08/27 16:06:40;;;;;;;1.57;0.90;;;;;;;;;;4963832;28;20195;-87
2021/08/27 16:09:45;;;;;;;1.00;0.70;;;;;;;;;;4990397;28;20209;-87
2021/08/27 16:12:49;;;;;;;5.27;0.93;;;;;;;;;;4968406;28;20557;-87
2021/08/27 16:15:54;;;;;;;2.23;0.77;;;;;;;;;;4973367;28;20555;-87
2021/08/27 16:19:01;;;;;;;2.43;1.10;;;;;;;;;;4961706;28;20198;-87
2021/08/27 16:22:05;;;;;;;2.30;0.80;;;;;;;;;;4954819;28;20210;-87
2021/08/27 16:25:12;;;;;;;1.87;1.00;;;;;;;;;;4965495;28;20193;-87
2021/08/27 16:28:16;;;;;;;2.43;1.27;;;;;;;;;;4967903;28;20202;-87
2021/08/27 16:31:20;;;;;;;4.33;1.10;;;;;;;;;;4988460;28;20222;-87
2021/08/27 16:34:24;;;;;;;2.73;0.83;;;;;;;;;;4960272;28;20187;-87
2021/08/27 16:37:28;;;;;;;3.07;1.27;;;;;;;;;;4959773;28;20202;-86
2021/08/27 16:40:32;;;;;;;2.00;0.83;;;;;;;;;;4971099;28;20210;-86
2021/08/27 16:43:36;;;;;;;2.87;1.00;;;;;;;;;;4972506;28;20198;-87
2021/08/27 16:46:42;;;;;;;2.67;0.87;;;;;;;;;;4980912;28;20538;-87
2021/08/27 16:49:46;;;;;;;1.20;0.80;;;;;;;;;;4960071;28;20226;-87
2021/08/27 16:52:51;;;;;;;1.67;0.87;;;;;;;;;;4960275;28;20218;-87
2021/08/27 16:55:55;;;;;;;1.90;0.87;;;;;;;;;;4957561;28;20198;-86
2021/08/27 16:59:00;;;;;;;1.90;0.87;;;;;;;;;;4960097;28;20206;-87
2021/08/27 17:02:05;;;;;;;2.43;1.03;;;;;;;;;;4959560;28;20219;-87
2021/08/27 17:05:10;;;;;;;2.90;1.20;;;;;;;;;;4960282;28;20547;-87
2021/08/27 17:08:15;;;;;;;3.30;1.23;;;;;;;;;;4971528;28;20197;-87
2021/08/27 17:11:19;;;;;;;2.93;0.93;;;;;;;;;;4989778;28;20704;-87
2021/08/27 17:14:24;;;;;;;3.27;1.43;;;;;;;;;;4968004;28;20661;-86
2021/08/27 17:17:28;;;;;;;1.30;0.93;;;;;;;;;;4979245;28;20202;-87
2021/08/27 17:20:32;;;;;;;2.30;0.90;;;;;;;;;;4967845;28;20530;-87
2021/08/27 17:23:36;;;;;;;2.60;0.90;;;;;;;;;;4968466;28;20186;-87
2021/08/27 17:26:41;;;;;;;2.03;0.90;;;;;;;;;;4972319;28;20191;-87
2021/08/27 17:29:45;;;;;;;3.77;1.03;;;;;;;;;;4971028;28;20523;-87
2021/08/27 17:32:49;;;;;;;3.17;1.10;;;;;;;;;;4981930;28;20222;-87
2021/08/27 17:35:57;;;;;;;2.00;0.90;;;;;;;;;;4974117;28;20191;-87
2021/08/27 17:39:02;;;;;;;1.33;0.93;;;;;;;;;;4990477;28;20194;-87
2021/08/27 17:42:06;;;;;;;4.23;1.07;;;;;;;;;;4980864;28;20225;-87
2021/08/27 17:45:10;;;;;;;2.27;1.00;;;;;;;;;;4963061;28;20183;-87
2021/08/27 17:48:15;;;;;;;1.40;0.77;;;;;;;;;;4985798;28;20194;-87
2021/08/27 17:51:19;;;;;;;1.30;1.03;;;;;;;;;;4984201;28;20229;-87
2021/08/27 17:54:24;;;;;;;4.27;1.27;;;;;;;;;;4982460;28;20190;-87
2021/08/27 17:57:29;;;;;;;4.33;1.20;;;;;;;;;;4982671;28;20637;-87
2021/08/27 18:00:33;;;;;;;3.13;1.10;;;;;;;;;;4971221;28;20198;-87
2021/08/27 18:03:38;;;;;;;3.33;1.20;;;;;;;;;;4963675;28;20202;-87
2021/08/27 18:06:42;;;;;;;1.50;1.13;;;;;;;;;;4962847;28;20524;-87
2021/08/27 18:09:46;;;;;;;2.73;1.70;;;;;;;;;;4973310;28;20190;-87
2021/08/27 18:12:50;;;;;;;1.37;1.10;;;;;;;;;;4962065;28;20218;-87
2021/08/27 18:15:55;;;;;;;2.10;0.90;;;;;;;;;;4962964;28;20205;-87
2021/08/27 18:18:59;;;;;;;2.87;1.00;;;;;;;;;;4962390;28;20193;-87
2021/08/27 18:22:04;;;;;;;1.90;1.10;;;;;;;;;;4982173;28;20240;-87
2021/08/27 18:25:09;;;;;;;2.70;1.10;;;;;;;;;;4981194;28;20202;-87
2021/08/27 18:28:13;;;;;;;4.53;1.30;;;;;;;;;;4993032;28;20530;-87
2021/08/27 18:31:17;;;;;;;2.70;1.30;;;;;;;;;;4970222;28;20229;-86
2021/08/27 18:34:21;;;;;;;1.53;1.40;;;;;;;;;;4982080;28;20201;-86
2021/08/27 18:37:25;;;;;;;2.37;1.63;;;;;;;;;;4970381;28;20181;-86